Beirne, AR (71721)

4:35 PM CDT on July 22, 2014 (GMT -0500)
Florence Mem AP, Arkadelphia, (KADF) Elev 184 ft | 34.10 °N, 93.07 °W | Change Station

Current weather conditions updated 39 minutes ago

Overcast
Overcast
90 °F
Feels Like 94 °F
N
0
Wind Variable Wind from North

Tomorrow is forecast to be nearly the same temperature as today.

Today
High -- | Low -- °F
--% Chance of Precip.
Yesterday
High -- | Low -- °F
Precip. -- in
6:17 AM 8:20 PM
Waning Crescent, 15% visible
Pressure 30.11 in
Visibility 10.0 miles
Clouds Clear
Heat Index 94 °F
Dew Point 68 °F
Humidity 48%
Rainfall 0.00 in
Snow Depth Not available.
UV 8 out of 12
Pollen 3.60 out of 12
Air Quality Not available.
Flu Activity Not available.
METAR KADF 222056Z AUTO 00000KT 10SM CLR 32/20 A3007 RMK AO2 58010 T03220200 SLP194

More Conditions Fewer Conditions

Pressure 30.11 in
Visibility 10.0 miles
Clouds Clear
Heat Index 94 °F
Dew Point 68 °F
Humidity 48%
Rainfall 0.00 in
Snow Depth Not available.
UV 8 out of 12
Pollen 3.60 out of 12
Air Quality Not available.
Flu Activity Not available.
METAR KADF 222056Z AUTO 00000KT 10SM CLR 32/20 A3007 RMK AO2 58010 T03220200 SLP194

More Conditions Fewer Conditions

10-Day Weather Forecast

Almanac

Astronomy

Jul. 22, 2014 Rise Set
Actual Time 6:17 AM CDT 8:20 PM CDT
Civil Twilight 5:49 AM CDT 8:48 PM CDT
Nautical Twilight 5:15 AM CDT 9:22 PM CDT
Astronomical Twilight 4:38 AM CDT 9:59 PM CDT
Moon 2:49 AM CDT 5:00 PM CDT
Length of Visible Light 14h 59m
Length of Day
14h 03m
Tomorrow will be 1m 19s shorter.
Waning Crescent, 15% of the Moon is Illuminated
Today
Waning Crescent
Jul 26
New
Aug 3
First Quarter
Aug 10
Full
Aug 17
Last Quarter

Today's Extremes

State Highs State Lows

Community

WunderPhotos

Upload Photos

1,736,360 photos uploaded!

Nearby

Snow Depth

Station Depth Elevation
No new snow has been reported.

Earthquake Activity

City Distance Mag. Time & Date
No recent earthquake activity has been reported nearby.
Minimum magnitude displayed is 2.5.

Coastal Water Temperatures

Place Temperature
No Stations Reporting

Nearby Weather Stations

Station Location Temp. Heat Index Dew Point Humidity Wind Precip. Elev Updated Type
MesoWest GUMSPR , Arkadelphia, AR 86 °F 83 °F - - North  at  - 0.00 in / hr 221 ft 3:00 PM CDT MADIS
RAWS BLUFF CITY AR, Bluff City, AR 90 °F 93 °F 67 °F 47% North  at  3 mph 0.00 in / hr 359 ft 3:10 PM CDT MADIS
MesoWest WITSPN , Arkadelphia, AR 103 °F 96 °F - - North  at  - 0.00 in / hr 202 ft 2:30 PM CDT MADIS

Show More Stations Show Fewer Stations